KLM1NS EHAM-ENBR
Flight info
| Callsign | KLM1NS |
|---|---|
| Flight time | 1h 24m |
| Altitude | 35000 |
| Route | ANDIK N873 REXMI/N0445F340 DCT KARLI DCT ALUVA |
| Aircraft | B738/M-SDE2E3FGHIRWXY/LB1 |
Departure
| Time | 2026-05-03 20:30 |
|---|---|
| Airport | Amsterdam Airport Schiphol (EHAM) |
Arrival
| Time | 2026-05-03 21:54 |
|---|---|
| Airport | Bergen Airport, Flesland (ENBR) |
| Time | Latitude | Longitude | Altitude | Speed | Heading |
|---|---|---|---|---|---|
| 2026-05-03 20:15 | 52.30624 | 4.76630 | -3 ft | 0 kts | 237° |
| 2026-05-03 20:17 | 52.30627 | 4.76637 | -3 ft | 4 kts | 236° |
| 2026-05-03 20:18 | 52.30642 | 4.76672 | -3 ft | 4 kts | 228° |
| 2026-05-03 20:18 | 52.30662 | 4.76702 | -3 ft | 4 kts | 212° |
| 2026-05-03 20:18 | 52.30685 | 4.76717 | -3 ft | 4 kts | 168° |
| 2026-05-03 20:18 | 52.30693 | 4.76713 | -3 ft | 1 kts | 148° |
| 2026-05-03 20:24 | 52.30689 | 4.76717 | -3 ft | 2 kts | 148° |
| 2026-05-03 20:24 | 52.30665 | 4.76741 | -3 ft | 6 kts | 148° |
| 2026-05-03 20:24 | 52.30623 | 4.76796 | -3 ft | 9 kts | 133° |
| 2026-05-03 20:24 | 52.30580 | 4.76893 | -3 ft | 12 kts | 131° |
| 2026-05-03 20:25 | 52.30511 | 4.76966 | -4 ft | 10 kts | 146° |
| 2026-05-03 20:25 | 52.30454 | 4.77024 | -4 ft | 10 kts | 148° |
| 2026-05-03 20:25 | 52.30428 | 4.77113 | -4 ft | 10 kts | 77° |
| 2026-05-03 20:25 | 52.30466 | 4.77223 | -4 ft | 13 kts | 56° |
| 2026-05-03 20:26 | 52.30513 | 4.77342 | -4 ft | 12 kts | 59° |
| 2026-05-03 20:26 | 52.30556 | 4.77461 | -4 ft | 12 kts | 59° |
| 2026-05-03 20:26 | 52.30534 | 4.77573 | -4 ft | 12 kts | 150° |
| 2026-05-03 20:26 | 52.30514 | 4.77590 | -4 ft | 0 kts | 151° |
| 2026-05-03 20:28 | 52.30510 | 4.77593 | -3 ft | 1 kts | 152° |
| 2026-05-03 20:28 | 52.30501 | 4.77601 | -3 ft | 4 kts | 152° |
| 2026-05-03 20:28 | 52.30470 | 4.77627 | -2 ft | 5 kts | 154° |
| 2026-05-03 20:29 | 52.30430 | 4.77653 | -1 ft | 7 kts | 184° |
| 2026-05-03 20:29 | 52.30398 | 4.77592 | -3 ft | 8 kts | 237° |
| 2026-05-03 20:29 | 52.30364 | 4.77504 | -4 ft | 18 kts | 237° |
| 2026-05-03 20:29 | 52.30166 | 4.76995 | -7 ft | 87 kts | 238° |
| 2026-05-03 20:30 | 52.29732 | 4.75863 | -5 ft | 145 kts | 238° |
| 2026-05-03 20:30 | 52.29117 | 4.74295 | 257 ft | 172 kts | 237° |
| 2026-05-03 20:30 | 52.28523 | 4.72680 | 1162 ft | 161 kts | 240° |
| 2026-05-03 20:30 | 52.27967 | 4.71109 | 1914 ft | 163 kts | 238° |
| 2026-05-03 20:31 | 52.27334 | 4.69387 | 2243 ft | 191 kts | 238° |
| 2026-05-03 20:31 | 52.26605 | 4.67427 | 2485 ft | 211 kts | 238° |
| 2026-05-03 20:31 | 52.26133 | 4.65148 | 2966 ft | 220 kts | 272° |
| 2026-05-03 20:31 | 52.26751 | 4.62869 | 3631 ft | 229 kts | 314° |
| 2026-05-03 20:32 | 52.28194 | 4.61784 | 4372 ft | 238 kts | 354° |
| 2026-05-03 20:32 | 52.29822 | 4.62373 | 5009 ft | 248 kts | 21° |
| 2026-05-03 20:32 | 52.31518 | 4.63409 | 5260 ft | 273 kts | 22° |
| 2026-05-03 20:32 | 52.33224 | 4.64921 | 5816 ft | 284 kts | 30° |
| 2026-05-03 20:33 | 52.34911 | 4.66644 | 6523 ft | 288 kts | 31° |
| 2026-05-03 20:33 | 52.36616 | 4.68397 | 7244 ft | 290 kts | 31° |
| 2026-05-03 20:33 | 52.38342 | 4.70139 | 8001 ft | 293 kts | 30° |
| 2026-05-03 20:33 | 52.40098 | 4.71879 | 8690 ft | 297 kts | 30° |
| 2026-05-03 20:34 | 52.41882 | 4.73626 | 9405 ft | 300 kts | 29° |
| 2026-05-03 20:34 | 52.43687 | 4.75380 | 10090 ft | 304 kts | 29° |
| 2026-05-03 20:34 | 52.45556 | 4.77187 | 10365 ft | 323 kts | 29° |
| 2026-05-03 20:34 | 52.47554 | 4.79114 | 10535 ft | 344 kts | 29° |
| 2026-05-03 20:35 | 52.49662 | 4.81150 | 10899 ft | 356 kts | 29° |
| 2026-05-03 20:35 | 52.51813 | 4.83229 | 11492 ft | 361 kts | 29° |
| 2026-05-03 20:35 | 52.53956 | 4.85426 | 12144 ft | 366 kts | 37° |
| 2026-05-03 20:35 | 52.55690 | 4.88513 | 12804 ft | 370 kts | 52° |
| 2026-05-03 20:36 | 52.57262 | 4.91896 | 13496 ft | 374 kts | 52° |
| 2026-05-03 20:36 | 52.58853 | 4.95317 | 14112 ft | 379 kts | 52° |
| 2026-05-03 20:36 | 52.60470 | 4.98766 | 14741 ft | 383 kts | 52° |
| 2026-05-03 20:36 | 52.62112 | 5.02244 | 15368 ft | 387 kts | 52° |
| 2026-05-03 20:37 | 52.63776 | 5.05751 | 15991 ft | 391 kts | 52° |
| 2026-05-03 20:37 | 52.65461 | 5.09296 | 16650 ft | 394 kts | 51° |
| 2026-05-03 20:37 | 52.67163 | 5.12876 | 17254 ft | 400 kts | 51° |
| 2026-05-03 20:37 | 52.68884 | 5.16501 | 17856 ft | 404 kts | 51° |
| 2026-05-03 20:38 | 52.70602 | 5.20123 | 18450 ft | 407 kts | 51° |
| 2026-05-03 20:38 | 52.72352 | 5.23818 | 19005 ft | 410 kts | 51° |
| 2026-05-03 20:38 | 52.74114 | 5.27544 | 19560 ft | 413 kts | 51° |
| 2026-05-03 20:38 | 52.75916 | 5.31262 | 20101 ft | 416 kts | 50° |
| 2026-05-03 20:39 | 52.77745 | 5.34988 | 20629 ft | 420 kts | 50° |
| 2026-05-03 20:39 | 52.79583 | 5.38765 | 21160 ft | 423 kts | 51° |
| 2026-05-03 20:39 | 52.81400 | 5.42606 | 21680 ft | 426 kts | 52° |
| 2026-05-03 20:39 | 52.83216 | 5.46495 | 22192 ft | 429 kts | 52° |
| 2026-05-03 20:40 | 52.85041 | 5.50422 | 22703 ft | 432 kts | 52° |
| 2026-05-03 20:40 | 52.86883 | 5.54385 | 23196 ft | 435 kts | 52° |
| 2026-05-03 20:40 | 52.88738 | 5.58374 | 23589 ft | 440 kts | 52° |
| 2026-05-03 20:40 | 52.90615 | 5.62411 | 23932 ft | 445 kts | 52° |
| 2026-05-03 20:41 | 52.92510 | 5.66488 | 24336 ft | 447 kts | 52° |
| 2026-05-03 20:41 | 52.94409 | 5.70576 | 24740 ft | 450 kts | 52° |
| 2026-05-03 20:41 | 52.96323 | 5.74704 | 25128 ft | 453 kts | 52° |
| 2026-05-03 20:41 | 52.98247 | 5.78861 | 25489 ft | 456 kts | 52° |
| 2026-05-03 20:42 | 53.00183 | 5.83050 | 25848 ft | 459 kts | 52° |
| 2026-05-03 20:42 | 53.02128 | 5.87265 | 26201 ft | 462 kts | 52° |
| 2026-05-03 20:42 | 53.04088 | 5.91522 | 26555 ft | 465 kts | 53° |
| 2026-05-03 20:42 | 53.06053 | 5.95798 | 26905 ft | 467 kts | 53° |
| 2026-05-03 20:43 | 53.08034 | 6.00111 | 27243 ft | 470 kts | 53° |
| 2026-05-03 20:43 | 53.10022 | 6.04448 | 27592 ft | 473 kts | 53° |
| 2026-05-03 20:43 | 53.12022 | 6.08815 | 27981 ft | 474 kts | 53° |
| 2026-05-03 20:43 | 53.14027 | 6.13187 | 28297 ft | 477 kts | 53° |
| 2026-05-03 20:44 | 53.16048 | 6.17596 | 28543 ft | 481 kts | 53° |
| 2026-05-03 20:44 | 53.18084 | 6.22044 | 28833 ft | 484 kts | 53° |
| 2026-05-03 20:44 | 53.20126 | 6.26514 | 29149 ft | 486 kts | 53° |
| 2026-05-03 20:44 | 53.22175 | 6.31009 | 29464 ft | 488 kts | 53° |
| 2026-05-03 20:45 | 53.24359 | 6.35347 | 29708 ft | 491 kts | 44° |
| 2026-05-03 20:45 | 53.26980 | 6.39030 | 29939 ft | 493 kts | 33° |
| 2026-05-03 20:45 | 53.29917 | 6.41983 | 30173 ft | 493 kts | 24° |
| 2026-05-03 20:45 | 53.33041 | 6.44357 | 30464 ft | 493 kts | 21° |
| 2026-05-03 20:46 | 53.35120 | 6.45872 | 30692 ft | 492 kts | 21° |
| 2026-05-03 20:46 | 53.39278 | 6.48873 | 31162 ft | 490 kts | 21° |
| 2026-05-03 20:46 | 53.41391 | 6.50407 | 31379 ft | 490 kts | 21° |
| 2026-05-03 20:46 | 53.44518 | 6.52700 | 31684 ft | 490 kts | 22° |
| 2026-05-03 20:47 | 53.47634 | 6.55014 | 31977 ft | 490 kts | 22° |
| 2026-05-03 20:47 | 53.50748 | 6.57348 | 32309 ft | 489 kts | 22° |
| 2026-05-03 20:47 | 53.53848 | 6.59688 | 32637 ft | 489 kts | 22° |
| 2026-05-03 20:47 | 53.56950 | 6.62038 | 32948 ft | 489 kts | 23° |
| 2026-05-03 20:48 | 53.60050 | 6.64391 | 33210 ft | 489 kts | 23° |
| 2026-05-03 20:48 | 53.63152 | 6.66749 | 33486 ft | 489 kts | 23° |
| 2026-05-03 20:48 | 53.66252 | 6.69108 | 33787 ft | 489 kts | 23° |
| 2026-05-03 20:48 | 53.69351 | 6.71469 | 34052 ft | 488 kts | 23° |
| 2026-05-03 20:49 | 53.72403 | 6.73798 | 34281 ft | 488 kts | 23° |
| 2026-05-03 20:49 | 53.75492 | 6.76157 | 34528 ft | 487 kts | 23° |
| 2026-05-03 20:49 | 53.78577 | 6.78518 | 34777 ft | 486 kts | 23° |
| 2026-05-03 20:49 | 53.81662 | 6.80882 | 34885 ft | 488 kts | 23° |
| 2026-05-03 20:50 | 53.84770 | 6.83274 | 34884 ft | 492 kts | 23° |
| 2026-05-03 20:50 | 53.91027 | 6.88126 | 34890 ft | 495 kts | 23° |
| 2026-05-03 20:51 | 53.97290 | 6.92935 | 34896 ft | 493 kts | 23° |
| 2026-05-03 20:51 | 54.03536 | 6.97759 | 34890 ft | 492 kts | 23° |
| 2026-05-03 20:52 | 54.09762 | 7.02596 | 34892 ft | 492 kts | 23° |
| 2026-05-03 20:52 | 54.15977 | 7.07444 | 34880 ft | 491 kts | 23° |
| 2026-05-03 20:53 | 54.22182 | 7.12300 | 34880 ft | 490 kts | 23° |
| 2026-05-03 20:53 | 54.28379 | 7.17166 | 34880 ft | 490 kts | 23° |
| 2026-05-03 20:54 | 54.34570 | 7.22042 | 34884 ft | 490 kts | 23° |
| 2026-05-03 20:54 | 54.43861 | 7.29391 | 34871 ft | 490 kts | 24° |
| 2026-05-03 20:55 | 54.50058 | 7.34313 | 34871 ft | 491 kts | 24° |
| 2026-05-03 20:55 | 54.56255 | 7.39252 | 34879 ft | 491 kts | 24° |
| 2026-05-03 20:56 | 54.62457 | 7.44212 | 34871 ft | 492 kts | 24° |
| 2026-05-03 20:56 | 54.68668 | 7.49195 | 34874 ft | 492 kts | 24° |
| 2026-05-03 20:57 | 54.74879 | 7.54196 | 34871 ft | 493 kts | 24° |
| 2026-05-03 20:57 | 54.81096 | 7.59219 | 34881 ft | 493 kts | 24° |
| 2026-05-03 20:58 | 54.87275 | 7.64229 | 34853 ft | 493 kts | 24° |
| 2026-05-03 20:58 | 54.93494 | 7.69286 | 34867 ft | 494 kts | 24° |
| 2026-05-03 20:59 | 54.96699 | 7.71350 | 34839 ft | 490 kts | 7° |
| 2026-05-03 20:59 | 55.00052 | 7.71690 | 34886 ft | 480 kts | 351° |
| 2026-05-03 20:59 | 55.03302 | 7.70655 | 34883 ft | 471 kts | 336° |
| 2026-05-03 20:59 | 55.06251 | 7.68352 | 34873 ft | 461 kts | 323° |
| 2026-05-03 21:00 | 55.10840 | 7.63484 | 34886 ft | 461 kts | 322° |
| 2026-05-03 21:00 | 55.17170 | 7.56549 | 34882 ft | 463 kts | 322° |
| 2026-05-03 21:01 | 55.22656 | 7.50616 | 34868 ft | 464 kts | 323° |
| 2026-05-03 21:01 | 55.28167 | 7.44709 | 34892 ft | 464 kts | 323° |
| 2026-05-03 21:02 | 55.33682 | 7.38801 | 34883 ft | 465 kts | 323° |
| 2026-05-03 21:02 | 55.39196 | 7.32875 | 34884 ft | 464 kts | 323° |
| 2026-05-03 21:03 | 55.44694 | 7.26943 | 34892 ft | 463 kts | 323° |
| 2026-05-03 21:03 | 55.50180 | 7.21001 | 34907 ft | 462 kts | 323° |
| 2026-05-03 21:04 | 55.55620 | 7.15090 | 34897 ft | 462 kts | 323° |
| 2026-05-03 21:04 | 55.61081 | 7.09137 | 34904 ft | 461 kts | 323° |
| 2026-05-03 21:05 | 55.66530 | 7.03177 | 34896 ft | 460 kts | 323° |
| 2026-05-03 21:05 | 55.71970 | 6.97209 | 34899 ft | 459 kts | 323° |
| 2026-05-03 21:06 | 55.77392 | 6.91238 | 34904 ft | 458 kts | 322° |
| 2026-05-03 21:06 | 55.82809 | 6.85253 | 34907 ft | 458 kts | 322° |
| 2026-05-03 21:07 | 55.88217 | 6.79260 | 34907 ft | 458 kts | 322° |
| 2026-05-03 21:07 | 55.93622 | 6.73249 | 34917 ft | 458 kts | 322° |
| 2026-05-03 21:08 | 55.99027 | 6.67218 | 34911 ft | 458 kts | 322° |
| 2026-05-03 21:08 | 56.04427 | 6.61172 | 34913 ft | 458 kts | 322° |
| 2026-05-03 21:09 | 56.09818 | 6.55118 | 34918 ft | 457 kts | 322° |
| 2026-05-03 21:09 | 56.15205 | 6.49046 | 34934 ft | 457 kts | 322° |
| 2026-05-03 21:10 | 56.20591 | 6.42955 | 34922 ft | 457 kts | 322° |
| 2026-05-03 21:10 | 56.25975 | 6.36846 | 34922 ft | 457 kts | 322° |
| 2026-05-03 21:11 | 56.31347 | 6.30730 | 34935 ft | 457 kts | 322° |
| 2026-05-03 21:11 | 56.36679 | 6.24639 | 34922 ft | 457 kts | 322° |
| 2026-05-03 21:12 | 56.42036 | 6.18501 | 34926 ft | 456 kts | 322° |
| 2026-05-03 21:12 | 56.47384 | 6.12350 | 34926 ft | 455 kts | 322° |
| 2026-05-03 21:13 | 56.52716 | 6.06197 | 34923 ft | 454 kts | 322° |
| 2026-05-03 21:13 | 56.58037 | 6.00036 | 34925 ft | 453 kts | 322° |
| 2026-05-03 21:14 | 56.63341 | 5.93875 | 34926 ft | 452 kts | 322° |
| 2026-05-03 21:14 | 56.68636 | 5.87701 | 34926 ft | 452 kts | 322° |
| 2026-05-03 21:15 | 56.73924 | 5.81516 | 34963 ft | 452 kts | 322° |
| 2026-05-03 21:15 | 56.79204 | 5.75318 | 34945 ft | 452 kts | 322° |
| 2026-05-03 21:16 | 56.84483 | 5.69100 | 34926 ft | 451 kts | 322° |
| 2026-05-03 21:16 | 56.89755 | 5.62870 | 34920 ft | 451 kts | 322° |
| 2026-05-03 21:17 | 56.94132 | 5.57683 | 34922 ft | 451 kts | 322° |
| 2026-05-03 21:17 | 56.98958 | 5.52419 | 34936 ft | 457 kts | 332° |
| 2026-05-03 21:18 | 57.05093 | 5.49334 | 34924 ft | 467 kts | 348° |
| 2026-05-03 21:18 | 57.11563 | 5.48027 | 34922 ft | 468 kts | 350° |
| 2026-05-03 21:19 | 57.18041 | 5.46808 | 34923 ft | 468 kts | 349° |
| 2026-05-03 21:19 | 57.24511 | 5.45502 | 34923 ft | 468 kts | 349° |
| 2026-05-03 21:20 | 57.30974 | 5.44134 | 34933 ft | 468 kts | 349° |
| 2026-05-03 21:20 | 57.37434 | 5.42745 | 34924 ft | 468 kts | 349° |
| 2026-05-03 21:21 | 57.43899 | 5.41351 | 34922 ft | 467 kts | 349° |
| 2026-05-03 21:21 | 57.50357 | 5.39956 | 34920 ft | 467 kts | 349° |
| 2026-05-03 21:22 | 57.56810 | 5.38559 | 34932 ft | 467 kts | 349° |
| 2026-05-03 21:22 | 57.63257 | 5.37158 | 34919 ft | 466 kts | 349° |
| 2026-05-03 21:23 | 57.69697 | 5.35754 | 34914 ft | 465 kts | 349° |
| 2026-05-03 21:23 | 57.76123 | 5.34348 | 34908 ft | 465 kts | 349° |
| 2026-05-03 21:24 | 57.82542 | 5.32938 | 34939 ft | 464 kts | 349° |
| 2026-05-03 21:24 | 57.88948 | 5.31525 | 34919 ft | 463 kts | 349° |
| 2026-05-03 21:25 | 57.95309 | 5.30118 | 34913 ft | 463 kts | 349° |
| 2026-05-03 21:25 | 58.01740 | 5.28690 | 34916 ft | 462 kts | 349° |
| 2026-05-03 21:26 | 58.08126 | 5.27267 | 34913 ft | 462 kts | 349° |
| 2026-05-03 21:26 | 58.14502 | 5.25841 | 34918 ft | 462 kts | 349° |
| 2026-05-03 21:27 | 58.20894 | 5.24405 | 34664 ft | 466 kts | 349° |
| 2026-05-03 21:27 | 58.24127 | 5.23674 | 34114 ft | 468 kts | 349° |
| 2026-05-03 21:27 | 58.27352 | 5.22948 | 33562 ft | 465 kts | 349° |
| 2026-05-03 21:28 | 58.30502 | 5.22241 | 33101 ft | 460 kts | 348° |
| 2026-05-03 21:28 | 58.33662 | 5.21530 | 32658 ft | 455 kts | 348° |
| 2026-05-03 21:28 | 58.36788 | 5.20825 | 32221 ft | 450 kts | 348° |
| 2026-05-03 21:28 | 58.39890 | 5.20123 | 31796 ft | 446 kts | 348° |
| 2026-05-03 21:29 | 58.42955 | 5.19426 | 31361 ft | 442 kts | 348° |
| 2026-05-03 21:29 | 58.46001 | 5.18731 | 30938 ft | 439 kts | 348° |
| 2026-05-03 21:29 | 58.49024 | 5.18041 | 30508 ft | 435 kts | 348° |
| 2026-05-03 21:29 | 58.52020 | 5.17355 | 30088 ft | 432 kts | 347° |
| 2026-05-03 21:30 | 58.54995 | 5.16673 | 29619 ft | 429 kts | 347° |
| 2026-05-03 21:30 | 58.57944 | 5.15996 | 29158 ft | 425 kts | 347° |
| 2026-05-03 21:30 | 58.60862 | 5.15326 | 28736 ft | 420 kts | 347° |
| 2026-05-03 21:30 | 58.63745 | 5.14663 | 28311 ft | 416 kts | 347° |
| 2026-05-03 21:31 | 58.66604 | 5.14004 | 27873 ft | 412 kts | 347° |
| 2026-05-03 21:31 | 58.69430 | 5.13351 | 27467 ft | 408 kts | 347° |
| 2026-05-03 21:31 | 58.72237 | 5.12701 | 27041 ft | 404 kts | 347° |
| 2026-05-03 21:31 | 58.75018 | 5.12056 | 26627 ft | 401 kts | 348° |
| 2026-05-03 21:32 | 58.77776 | 5.11415 | 26217 ft | 398 kts | 348° |
| 2026-05-03 21:32 | 58.80511 | 5.10778 | 25818 ft | 395 kts | 348° |
| 2026-05-03 21:32 | 58.83231 | 5.10144 | 25414 ft | 392 kts | 348° |
| 2026-05-03 21:32 | 58.85926 | 5.09515 | 25017 ft | 389 kts | 348° |
| 2026-05-03 21:33 | 58.88605 | 5.08889 | 24623 ft | 387 kts | 348° |
| 2026-05-03 21:33 | 58.91267 | 5.08265 | 24229 ft | 384 kts | 348° |
| 2026-05-03 21:33 | 58.93912 | 5.07645 | 23881 ft | 382 kts | 348° |
| 2026-05-03 21:33 | 58.96544 | 5.07027 | 23450 ft | 380 kts | 348° |
| 2026-05-03 21:34 | 58.99161 | 5.06412 | 22992 ft | 378 kts | 348° |
| 2026-05-03 21:34 | 59.01762 | 5.05800 | 22562 ft | 374 kts | 348° |
| 2026-05-03 21:34 | 59.04329 | 5.05195 | 22177 ft | 370 kts | 348° |
| 2026-05-03 21:34 | 59.06880 | 5.04594 | 21767 ft | 367 kts | 348° |
| 2026-05-03 21:35 | 59.08555 | 5.04198 | 21523 ft | 365 kts | 348° |
| 2026-05-03 21:35 | 59.11063 | 5.03604 | 21130 ft | 362 kts | 348° |
| 2026-05-03 21:35 | 59.13544 | 5.03017 | 20833 ft | 357 kts | 347° |
| 2026-05-03 21:35 | 59.15998 | 5.02434 | 20448 ft | 354 kts | 347° |
| 2026-05-03 21:36 | 59.18440 | 5.01852 | 20079 ft | 352 kts | 347° |
| 2026-05-03 21:36 | 59.21642 | 5.01088 | 19586 ft | 349 kts | 347° |
| 2026-05-03 21:36 | 59.24046 | 5.00515 | 19244 ft | 347 kts | 347° |
| 2026-05-03 21:36 | 59.25666 | 5.00127 | 18987 ft | 346 kts | 347° |
| 2026-05-03 21:37 | 59.28049 | 4.99556 | 18616 ft | 345 kts | 347° |
| 2026-05-03 21:37 | 59.30426 | 4.98986 | 18239 ft | 344 kts | 347° |
| 2026-05-03 21:37 | 59.32793 | 4.98418 | 17826 ft | 342 kts | 347° |
| 2026-05-03 21:37 | 59.35153 | 4.97852 | 17428 ft | 340 kts | 347° |
| 2026-05-03 21:38 | 59.37494 | 4.97289 | 17041 ft | 338 kts | 347° |
| 2026-05-03 21:38 | 59.39819 | 4.96740 | 16665 ft | 336 kts | 348° |
| 2026-05-03 21:38 | 59.42147 | 4.96323 | 16311 ft | 335 kts | 349° |
| 2026-05-03 21:38 | 59.44462 | 4.95974 | 15949 ft | 332 kts | 349° |
| 2026-05-03 21:39 | 59.46758 | 4.95634 | 15580 ft | 330 kts | 349° |
| 2026-05-03 21:39 | 59.49046 | 4.95287 | 15240 ft | 328 kts | 349° |
| 2026-05-03 21:39 | 59.51315 | 4.94933 | 14910 ft | 327 kts | 349° |
| 2026-05-03 21:39 | 59.53572 | 4.94573 | 14544 ft | 325 kts | 349° |
| 2026-05-03 21:40 | 59.55799 | 4.94214 | 14189 ft | 324 kts | 349° |
| 2026-05-03 21:40 | 59.58043 | 4.93851 | 13834 ft | 323 kts | 349° |
| 2026-05-03 21:40 | 59.60280 | 4.93488 | 13447 ft | 322 kts | 349° |
| 2026-05-03 21:40 | 59.62535 | 4.93088 | 13055 ft | 319 kts | 346° |
| 2026-05-03 21:41 | 59.64668 | 4.92093 | 12624 ft | 313 kts | 336° |
| 2026-05-03 21:41 | 59.66699 | 4.90778 | 12267 ft | 310 kts | 335° |
| 2026-05-03 21:41 | 59.68741 | 4.89421 | 11903 ft | 308 kts | 336° |
| 2026-05-03 21:41 | 59.70769 | 4.88085 | 11554 ft | 306 kts | 336° |
| 2026-05-03 21:42 | 59.72786 | 4.86776 | 11215 ft | 304 kts | 336° |
| 2026-05-03 21:42 | 59.74788 | 4.85489 | 10880 ft | 301 kts | 336° |
| 2026-05-03 21:42 | 59.76777 | 4.84218 | 10547 ft | 299 kts | 337° |
| 2026-05-03 21:42 | 59.78746 | 4.82965 | 10330 ft | 293 kts | 337° |
| 2026-05-03 21:43 | 59.80659 | 4.81753 | 10232 ft | 284 kts | 336° |
| 2026-05-03 21:43 | 59.82515 | 4.80574 | 10089 ft | 276 kts | 336° |
| 2026-05-03 21:43 | 59.84317 | 4.79428 | 9970 ft | 268 kts | 336° |
| 2026-05-03 21:43 | 59.86125 | 4.78606 | 9733 ft | 272 kts | 355° |
| 2026-05-03 21:44 | 59.88003 | 4.79499 | 9395 ft | 282 kts | 15° |
| 2026-05-03 21:44 | 59.89842 | 4.80810 | 9098 ft | 280 kts | 14° |
| 2026-05-03 21:44 | 59.91680 | 4.82049 | 8817 ft | 278 kts | 13° |
| 2026-05-03 21:44 | 59.93424 | 4.83632 | 8646 ft | 278 kts | 34° |
| 2026-05-03 21:45 | 59.94624 | 4.86616 | 8508 ft | 278 kts | 64° |
| 2026-05-03 21:45 | 59.95000 | 4.90325 | 8358 ft | 272 kts | 94° |
| 2026-05-03 21:45 | 59.94511 | 4.93888 | 8128 ft | 265 kts | 122° |
| 2026-05-03 21:45 | 59.93601 | 4.97061 | 7868 ft | 264 kts | 118° |
| 2026-05-03 21:46 | 59.92813 | 5.00360 | 7602 ft | 263 kts | 120° |
| 2026-05-03 21:46 | 59.91976 | 5.03589 | 7337 ft | 262 kts | 116° |
| 2026-05-03 21:46 | 59.91537 | 5.07108 | 7096 ft | 262 kts | 98° |
| 2026-05-03 21:46 | 59.91429 | 5.10705 | 6840 ft | 261 kts | 79° |
| 2026-05-03 21:47 | 59.92131 | 5.13962 | 6581 ft | 255 kts | 47° |
| 2026-05-03 21:47 | 59.93482 | 5.16091 | 6331 ft | 246 kts | 20° |
| 2026-05-03 21:47 | 59.95105 | 5.16912 | 6063 ft | 238 kts | 358° |
| 2026-05-03 21:47 | 59.96727 | 5.16867 | 5813 ft | 235 kts | 353° |
| 2026-05-03 21:48 | 59.98355 | 5.16683 | 5550 ft | 233 kts | 353° |
| 2026-05-03 21:48 | 59.99975 | 5.16506 | 5189 ft | 234 kts | 353° |
| 2026-05-03 21:48 | 60.01602 | 5.16342 | 4922 ft | 233 kts | 354° |
| 2026-05-03 21:48 | 60.03216 | 5.16192 | 4712 ft | 231 kts | 354° |
| 2026-05-03 21:49 | 60.04824 | 5.16047 | 4462 ft | 230 kts | 354° |
| 2026-05-03 21:49 | 60.06432 | 5.16050 | 4128 ft | 234 kts | 8° |
| 2026-05-03 21:49 | 60.07847 | 5.17593 | 3913 ft | 236 kts | 46° |
| 2026-05-03 21:49 | 60.08768 | 5.20291 | 3717 ft | 234 kts | 58° |
| 2026-05-03 21:50 | 60.09559 | 5.23125 | 3493 ft | 232 kts | 59° |
| 2026-05-03 21:50 | 60.10331 | 5.25938 | 3283 ft | 229 kts | 58° |
| 2026-05-03 21:50 | 60.11431 | 5.28092 | 3053 ft | 219 kts | 17° |
| 2026-05-03 21:50 | 60.12872 | 5.28106 | 3017 ft | 208 kts | 341° |
| 2026-05-03 21:51 | 60.14271 | 5.27310 | 2915 ft | 213 kts | 345° |
| 2026-05-03 21:51 | 60.15719 | 5.26654 | 2651 ft | 208 kts | 347° |
| 2026-05-03 21:51 | 60.17098 | 5.26077 | 2365 ft | 197 kts | 347° |
| 2026-05-03 21:51 | 60.18403 | 5.25580 | 2119 ft | 184 kts | 348° |
| 2026-05-03 21:52 | 60.19622 | 5.25101 | 1880 ft | 173 kts | 348° |
| 2026-05-03 21:52 | 60.20773 | 5.24697 | 1660 ft | 162 kts | 349° |
| 2026-05-03 21:52 | 60.21840 | 5.24338 | 1462 ft | 150 kts | 349° |
| 2026-05-03 21:52 | 60.22872 | 5.23991 | 1264 ft | 152 kts | 349° |
| 2026-05-03 21:53 | 60.23906 | 5.23646 | 1056 ft | 149 kts | 348° |
| 2026-05-03 21:53 | 60.24929 | 5.23304 | 861 ft | 148 kts | 349° |
| 2026-05-03 21:53 | 60.25944 | 5.22963 | 674 ft | 148 kts | 348° |
| 2026-05-03 21:53 | 60.26964 | 5.22621 | 468 ft | 149 kts | 349° |
| 2026-05-03 21:54 | 60.27984 | 5.22278 | 263 ft | 148 kts | 349° |
| 2026-05-03 21:54 | 60.28973 | 5.21936 | 161 ft | 132 kts | 348° |
| 2026-05-03 21:54 | 60.29663 | 5.21706 | 148 ft | 69 kts | 350° |
| 2026-05-03 21:54 | 60.29966 | 5.21602 | 160 ft | 30 kts | 351° |
| 2026-05-03 21:55 | 60.30044 | 5.21695 | 160 ft | 11 kts | 91° |
| 2026-05-03 21:55 | 60.30045 | 5.21857 | 158 ft | 12 kts | 98° |
| 2026-05-03 21:55 | 60.29975 | 5.21925 | 155 ft | 12 kts | 169° |
| 2026-05-03 21:55 | 60.29888 | 5.21955 | 152 ft | 13 kts | 171° |
| 2026-05-03 21:56 | 60.29789 | 5.21990 | 148 ft | 16 kts | 170° |
| 2026-05-03 21:56 | 60.29683 | 5.22025 | 147 ft | 15 kts | 171° |
| 2026-05-03 21:56 | 60.29580 | 5.22059 | 149 ft | 15 kts | 170° |
| 2026-05-03 21:56 | 60.29482 | 5.22091 | 157 ft | 14 kts | 170° |
| 2026-05-03 21:57 | 60.29410 | 5.22137 | 157 ft | 9 kts | 127° |
| 2026-05-03 21:57 | 60.29382 | 5.22233 | 160 ft | 8 kts | 151° |
| 2026-05-03 21:57 | 60.29327 | 5.22265 | 163 ft | 8 kts | 169° |
| 2026-05-03 21:57 | 60.29273 | 5.22283 | 164 ft | 8 kts | 170° |
| 2026-05-03 21:58 | 60.29220 | 5.22302 | 165 ft | 8 kts | 170° |
| 2026-05-03 21:58 | 60.29169 | 5.22320 | 167 ft | 7 kts | 170° |
| 2026-05-03 21:58 | 60.29120 | 5.22337 | 167 ft | 7 kts | 172° |
| 2026-05-03 21:58 | 60.29065 | 5.22354 | 166 ft | 8 kts | 172° |
| 2026-05-03 21:59 | 60.29031 | 5.22428 | 168 ft | 8 kts | 94° |
| 2026-05-03 21:59 | 60.29037 | 5.22532 | 171 ft | 5 kts | 80° |
| 2026-05-03 21:59 | 60.29034 | 5.22595 | 172 ft | 5 kts | 128° |
| 2026-05-03 21:59 | 60.29004 | 5.22631 | 172 ft | 5 kts | 155° |
| 2026-05-03 22:00 | 60.28984 | 5.22650 | 172 ft | 1 kts | 156° |
| 2026-05-03 22:00 | 60.28982 | 5.22652 | 172 ft | 0 kts | 156° |